createdAt,value
2023-02-13T00:00:24.525Z,7.43
2023-02-13T00:02:52.460Z,7.53
2023-02-13T00:05:19.912Z,7.73
2023-02-13T00:07:47.248Z,7.72
2023-02-13T00:10:14.544Z,7.61
2023-02-13T00:12:41.996Z,7.69
2023-02-13T00:15:09.890Z,7.85
2023-02-13T00:17:37.348Z,7.73
2023-02-13T00:20:05.479Z,7.83
2023-02-13T00:22:36.556Z,7.84
2023-02-13T00:25:05.226Z,7.74
2023-02-13T00:27:32.830Z,7.43
2023-02-13T00:30:00.265Z,7.41
2023-02-13T00:32:27.488Z,7.44
2023-02-13T00:34:56.571Z,7.18
2023-02-13T00:37:24.910Z,7.24
2023-02-13T00:39:52.952Z,7.33
2023-02-13T00:42:24.038Z,7.56
2023-02-13T00:44:51.375Z,7.49
2023-02-13T00:47:19.281Z,7.44
2023-02-13T00:49:46.570Z,7.31
2023-02-13T00:52:13.862Z,7.34
2023-02-13T00:54:41.254Z,7.28
2023-02-13T00:57:08.548Z,7.23
2023-02-13T00:59:35.846Z,7.19
2023-02-13T01:02:03.485Z,7.33
2023-02-13T01:04:31.987Z,7.36
2023-02-13T01:06:59.282Z,7.31
2023-02-13T01:09:26.634Z,7.45
2023-02-13T01:11:54.127Z,7.45
2023-02-13T01:14:21.428Z,7.39
2023-02-13T01:16:49.870Z,7.25
2023-02-13T01:19:17.385Z,7.32
2023-02-13T01:21:44.672Z,7.44
2023-02-13T01:24:11.998Z,7.41
2023-02-13T01:26:39.329Z,7.25
2023-02-13T01:29:07.149Z,6.93
2023-02-13T01:31:34.610Z,6.88
2023-02-13T01:34:01.897Z,7.01
2023-02-13T01:36:29.232Z,7.19
2023-02-13T01:38:58.035Z,7.32
2023-02-13T01:41:26.724Z,7.27
2023-02-13T01:43:59.422Z,7.24
2023-02-13T01:46:32.135Z,7.18
2023-02-13T01:49:10.016Z,7.21
2023-02-13T01:51:37.770Z,7.23
2023-02-13T01:54:19.870Z,7.26
2023-02-13T01:56:52.848Z,7.07
2023-02-13T01:59:25.339Z,7.22
2023-02-13T02:01:53.784Z,7.15
2023-02-13T02:04:25.744Z,7.13
2023-02-13T02:06:59.144Z,7.18
2023-02-13T02:09:33.239Z,7.16
2023-02-13T02:12:09.136Z,7.23
2023-02-13T02:14:40.828Z,7.21
2023-02-13T02:17:11.236Z,7.19
2023-02-13T02:19:49.391Z,7.15
2023-02-13T02:22:19.754Z,7.28
2023-02-13T02:24:56.192Z,6.98
2023-02-13T02:27:37.108Z,7.09
2023-02-13T02:30:26.453Z,6.99
2023-02-13T02:33:09.745Z,7.07
2023-02-13T02:35:59.186Z,7.08
2023-02-13T02:38:26.518Z,7.21
2023-02-13T02:41:10.513Z,7.34
2023-02-13T02:43:59.289Z,7.40
2023-02-13T02:47:26.775Z,7.27
2023-02-13T02:50:09.150Z,6.93
2023-02-13T02:52:52.760Z,7.10
2023-02-13T02:55:32.476Z,6.99
2023-02-13T02:58:31.587Z,7.11
2023-02-13T03:01:19.936Z,7.17
2023-02-13T03:04:06.439Z,7.15
2023-02-13T03:06:53.648Z,7.19
2023-02-13T03:09:43.073Z,7.10
2023-02-13T03:12:30.405Z,6.94
2023-02-13T03:14:57.726Z,6.93
2023-02-13T03:17:43.505Z,6.92
2023-02-13T03:20:42.679Z,6.93
2023-02-13T03:23:29.163Z,6.99
2023-02-13T03:26:33.317Z,6.88
2023-02-13T03:29:33.390Z,6.76
2023-02-13T03:32:07.214Z,6.91
2023-02-13T03:34:56.894Z,6.76
2023-02-13T03:37:48.716Z,6.71
2023-02-13T03:40:20.870Z,6.62
2023-02-13T03:42:49.018Z,6.51
2023-02-13T03:45:40.028Z,6.71
2023-02-13T03:48:31.552Z,6.60
2023-02-13T03:51:00.322Z,6.56
2023-02-13T03:53:29.679Z,6.57
2023-02-13T03:56:17.560Z,6.68
2023-02-13T03:59:07.442Z,6.56
2023-02-13T04:01:36.111Z,6.76
2023-02-13T04:04:14.019Z,6.64
2023-02-13T04:07:10.657Z,6.57
2023-02-13T04:09:40.807Z,6.48
2023-02-13T04:12:19.203Z,6.46
2023-02-13T04:14:58.027Z,6.41
2023-02-13T04:17:30.479Z,6.59
2023-02-13T04:19:57.724Z,6.73
2023-02-13T04:22:24.969Z,6.65
2023-02-13T04:24:52.351Z,6.50
2023-02-13T04:27:19.787Z,6.51
2023-02-13T04:29:47.084Z,6.58
2023-02-13T04:32:14.921Z,6.65
2023-02-13T04:34:42.214Z,6.76
2023-02-13T04:37:09.719Z,6.66
2023-02-13T04:39:37.050Z,6.83
2023-02-13T04:42:04.412Z,6.80
2023-02-13T04:44:31.686Z,6.90
2023-02-13T04:46:59.005Z,6.77
2023-02-13T04:49:26.345Z,6.68
2023-02-13T04:51:53.733Z,6.53
2023-02-13T04:54:20.930Z,6.61
2023-02-13T04:56:48.234Z,6.36
2023-02-13T04:59:15.558Z,6.45
2023-02-13T05:01:43.047Z,6.39
2023-02-13T05:04:11.403Z,6.58
2023-02-13T05:06:38.819Z,6.42
2023-02-13T05:09:06.136Z,6.39
2023-02-13T05:11:33.385Z,6.48
2023-02-13T05:14:00.587Z,6.38
2023-02-13T05:16:27.927Z,6.49
2023-02-13T05:18:55.410Z,6.51
2023-02-13T05:21:40.962Z,6.55
2023-02-13T05:24:08.222Z,6.48
2023-02-13T05:26:35.524Z,6.39
2023-02-13T05:29:22.715Z,6.47
2023-02-13T05:31:53.325Z,6.44
2023-02-13T05:34:22.104Z,6.43
2023-02-13T05:36:49.712Z,6.39
2023-02-13T05:39:17.200Z,6.45
2023-02-13T05:41:45.553Z,6.42
2023-02-13T05:44:13.561Z,6.18
2023-02-13T05:46:41.744Z,6.34
2023-02-13T05:49:10.100Z,6.41
2023-02-13T05:51:37.486Z,6.52
2023-02-13T05:54:04.898Z,6.34
2023-02-13T05:56:32.121Z,6.23
2023-02-13T05:58:59.581Z,6.16
2023-02-13T06:01:26.996Z,6.15
2023-02-13T06:03:54.388Z,6.13
2023-02-13T06:06:22.835Z,6.35
2023-02-13T06:08:50.199Z,6.33
2023-02-13T06:11:17.964Z,6.47
2023-02-13T06:13:45.337Z,6.30
2023-02-13T06:16:13.267Z,6.38
2023-02-13T06:18:40.616Z,6.42
2023-02-13T06:21:08.681Z,6.47
2023-02-13T06:23:36.248Z,6.39
2023-02-13T06:26:05.360Z,6.28
2023-02-13T06:28:32.997Z,6.35
2023-02-13T06:31:00.980Z,6.56
2023-02-13T06:33:28.862Z,6.59
2023-02-13T06:35:56.162Z,6.60
2023-02-13T06:38:24.487Z,6.55
2023-02-13T06:40:52.201Z,6.45
2023-02-13T06:43:19.494Z,6.37
2023-02-13T06:45:47.311Z,6.30
2023-02-13T06:48:15.124Z,6.52
2023-02-13T06:50:42.469Z,6.46
2023-02-13T06:53:09.737Z,6.41
2023-02-13T06:55:39.444Z,6.39
2023-02-13T06:58:06.751Z,6.56
2023-02-13T07:00:34.195Z,6.50
2023-02-13T07:03:03.218Z,6.40
2023-02-13T07:05:30.768Z,6.35
2023-02-13T07:07:58.143Z,6.33
2023-02-13T07:10:25.511Z,6.34
2023-02-13T07:13:05.010Z,6.44
2023-02-13T07:15:36.892Z,6.22
2023-02-13T07:18:04.884Z,6.27
2023-02-13T07:20:33.140Z,6.50
2023-02-13T07:23:01.720Z,6.58
2023-02-13T07:25:29.557Z,6.28
2023-02-13T07:28:04.394Z,6.30
2023-02-13T07:30:32.991Z,6.22
2023-02-13T07:33:01.461Z,6.28
2023-02-13T07:35:28.881Z,6.36
2023-02-13T07:37:56.358Z,6.15
2023-02-13T07:40:23.794Z,6.02
2023-02-13T07:42:51.107Z,5.96
2023-02-13T07:45:18.725Z,5.86
2023-02-13T07:47:46.110Z,5.94
2023-02-13T07:50:13.484Z,6.17
2023-02-13T07:52:40.777Z,6.51
2023-02-13T07:55:08.634Z,6.37
2023-02-13T07:57:35.940Z,6.45
2023-02-13T08:00:03.685Z,6.42
2023-02-13T08:02:39.335Z,6.37
2023-02-13T08:05:07.138Z,6.57
2023-02-13T08:07:34.926Z,6.34
2023-02-13T08:10:20.849Z,6.31
2023-02-13T08:12:48.303Z,6.35
2023-02-13T08:15:16.208Z,6.41
2023-02-13T08:17:43.558Z,6.49
2023-02-13T08:20:11.446Z,6.52
2023-02-13T08:22:39.383Z,6.60
2023-02-13T08:25:08.622Z,6.95
2023-02-13T08:27:35.929Z,6.77
2023-02-13T08:30:04.997Z,6.87
2023-02-13T08:32:41.932Z,7.21
2023-02-13T08:35:19.550Z,7.22
2023-02-13T08:37:47.761Z,6.94
2023-02-13T08:40:15.122Z,6.92
2023-02-13T08:42:42.391Z,6.84
2023-02-13T08:45:11.648Z,6.88
2023-02-13T08:47:39.935Z,6.94
2023-02-13T08:50:08.099Z,6.81
2023-02-13T08:52:35.782Z,6.97
2023-02-13T08:55:03.891Z,7.05
2023-02-13T08:57:31.573Z,6.87
2023-02-13T08:59:58.880Z,6.91
2023-02-13T09:02:26.274Z,7.02
2023-02-13T09:04:53.615Z,7.04
2023-02-13T09:07:20.877Z,7.08
2023-02-13T09:09:48.267Z,7.06
2023-02-13T09:12:15.579Z,7.16
2023-02-13T09:14:43.001Z,7.12
2023-02-13T09:17:10.397Z,7.08
2023-02-13T09:19:37.809Z,7.08
2023-02-13T09:22:05.025Z,7.20
2023-02-13T09:24:32.212Z,7.10
2023-02-13T09:26:59.568Z,7.21
2023-02-13T09:29:30.339Z,7.32
2023-02-13T09:31:57.982Z,7.26
2023-02-13T09:34:25.586Z,7.18
2023-02-13T09:36:55.686Z,7.20
2023-02-13T09:39:22.840Z,7.26
2023-02-13T09:41:51.299Z,7.27
2023-02-13T09:44:42.303Z,7.36
2023-02-13T09:47:18.774Z,7.63
2023-02-13T09:49:50.239Z,7.66
2023-02-13T09:52:17.567Z,7.88
2023-02-13T09:54:44.916Z,7.81
2023-02-13T09:57:35.074Z,7.77
2023-02-13T10:00:44.576Z,7.70
2023-02-13T10:03:19.527Z,7.92
2023-02-13T10:06:02.089Z,7.76
2023-02-13T10:08:44.263Z,7.80
2023-02-13T10:11:27.837Z,7.87
2023-02-13T10:14:16.251Z,7.90
2023-02-13T10:17:21.524Z,7.87
2023-02-13T10:19:59.323Z,8.03
2023-02-13T10:22:33.445Z,7.97
2023-02-13T10:25:04.887Z,8.11
2023-02-13T10:27:36.150Z,8.13
2023-02-13T10:30:12.546Z,8.43
2023-02-13T10:33:11.200Z,8.35
2023-02-13T10:35:39.047Z,8.47
2023-02-13T10:38:16.953Z,8.60
2023-02-13T10:41:10.212Z,8.49
2023-02-13T10:44:15.845Z,8.42
2023-02-13T10:46:55.258Z,8.44
2023-02-13T10:49:43.930Z,8.66
2023-02-13T10:52:17.533Z,8.62
2023-02-13T10:55:07.012Z,8.72
2023-02-13T10:57:40.508Z,8.86
2023-02-13T11:00:24.991Z,8.97
2023-02-13T11:02:52.414Z,8.83
2023-02-13T11:05:24.525Z,8.92
2023-02-13T11:07:51.820Z,8.89
2023-02-13T11:10:22.688Z,8.81
2023-02-13T11:12:50.855Z,9.05
2023-02-13T11:15:29.666Z,9.07
2023-02-13T11:18:00.758Z,9.23
2023-02-13T11:20:34.756Z,9.21
2023-02-13T11:23:27.874Z,9.40
2023-02-13T11:26:04.381Z,9.37
2023-02-13T11:28:36.076Z,9.38
2023-02-13T11:31:26.136Z,9.36
2023-02-13T11:33:53.606Z,9.47
2023-02-13T11:36:32.545Z,9.56
2023-02-13T11:39:17.335Z,9.80
2023-02-13T11:41:46.251Z,9.97
2023-02-13T11:44:29.869Z,9.85
2023-02-13T11:47:00.216Z,10.01
2023-02-13T11:49:30.424Z,9.98
2023-02-13T11:51:58.348Z,9.95
2023-02-13T11:54:44.847Z,10.00
2023-02-13T11:57:15.210Z,10.13
2023-02-13T11:59:44.845Z,10.12
2023-02-13T12:02:29.875Z,10.05
2023-02-13T12:05:16.052Z,9.88
2023-02-13T12:07:44.817Z,10.25
2023-02-13T12:10:15.135Z,10.38
2023-02-13T12:12:53.759Z,10.26
2023-02-13T12:15:24.799Z,10.30
2023-02-13T12:18:00.257Z,10.41
2023-02-13T12:20:28.738Z,10.58
2023-02-13T12:23:01.707Z,10.63
2023-02-13T12:25:49.286Z,10.66
2023-02-13T12:28:20.498Z,10.72
2023-02-13T12:31:14.368Z,10.94
2023-02-13T12:33:59.184Z,11.02
2023-02-13T12:36:58.708Z,11.05
2023-02-13T12:39:37.782Z,11.14
2023-02-13T12:42:17.248Z,11.16
2023-02-13T12:45:02.094Z,11.17
2023-02-13T12:47:31.623Z,11.17
2023-02-13T12:50:05.217Z,11.28
2023-02-13T12:53:04.994Z,11.40
2023-02-13T12:55:44.794Z,11.38
2023-02-13T12:58:34.050Z,11.40
2023-02-13T13:01:07.346Z,11.32
2023-02-13T13:03:46.972Z,11.35
2023-02-13T13:06:35.734Z,11.32
2023-02-13T13:09:19.637Z,11.77
2023-02-13T13:11:56.182Z,11.52
2023-02-13T13:14:47.298Z,11.69
2023-02-13T13:17:23.427Z,11.70
2023-02-13T13:20:00.608Z,11.74
2023-02-13T13:22:35.489Z,12.22
2023-02-13T13:25:12.868Z,12.32
2023-02-13T13:27:46.536Z,12.43
2023-02-13T13:30:29.112Z,12.31
2023-02-13T13:33:06.266Z,12.26
2023-02-13T13:35:34.757Z,12.01
2023-02-13T13:38:13.469Z,12.05
2023-02-13T13:40:57.441Z,12.09
2023-02-13T13:43:25.917Z,12.03
2023-02-13T13:45:59.329Z,12.22
2023-02-13T13:49:21.044Z,12.19
2023-02-13T13:51:48.369Z,12.15
2023-02-13T13:54:15.504Z,12.19
2023-02-13T13:56:56.843Z,12.20
2023-02-13T13:59:33.438Z,12.13
2023-02-13T14:02:24.065Z,12.20
2023-02-13T14:05:01.714Z,12.21
2023-02-13T14:07:38.208Z,12.17
2023-02-13T14:10:06.739Z,12.40
2023-02-13T14:12:33.936Z,12.54
2023-02-13T14:15:01.301Z,12.38
2023-02-13T14:17:46.920Z,12.29
2023-02-13T14:20:44.361Z,12.20
2023-02-13T14:23:37.962Z,12.45
2023-02-13T14:26:17.514Z,12.62
2023-02-13T14:28:47.472Z,12.67
2023-02-13T14:31:27.999Z,12.49
2023-02-13T14:34:04.036Z,12.67
2023-02-13T14:36:33.747Z,12.55
2023-02-13T14:39:26.700Z,12.71
2023-02-13T14:41:56.894Z,12.81
2023-02-13T14:44:29.981Z,12.90
2023-02-13T14:46:58.860Z,12.76
2023-02-13T14:49:30.208Z,12.87
2023-02-13T14:52:00.588Z,13.06
2023-02-13T14:54:33.025Z,12.85
2023-02-13T14:57:17.827Z,12.99
2023-02-13T14:59:48.331Z,12.95
2023-02-13T15:02:21.947Z,12.96
2023-02-13T15:05:05.119Z,12.74
2023-02-13T15:07:35.812Z,12.86
2023-02-13T15:10:47.101Z,12.99
2023-02-13T15:13:48.975Z,13.18
2023-02-13T15:16:17.163Z,12.85
2023-02-13T15:18:52.626Z,13.01
2023-02-13T15:21:22.192Z,13.04
2023-02-13T15:23:50.765Z,13.27
2023-02-13T15:26:27.999Z,13.07
2023-02-13T15:29:02.279Z,13.08
2023-02-13T15:31:34.874Z,13.25
2023-02-13T15:34:02.253Z,12.98
2023-02-13T15:36:40.722Z,13.07
2023-02-13T15:39:10.387Z,13.05
2023-02-13T15:41:39.158Z,13.23
2023-02-13T15:44:07.084Z,13.16
2023-02-13T15:46:37.064Z,13.20
2023-02-13T15:49:07.480Z,13.18
2023-02-13T15:51:35.199Z,13.38
2023-02-13T15:54:20.624Z,13.50
2023-02-13T15:56:48.886Z,13.22
2023-02-13T15:59:17.917Z,13.10
2023-02-13T16:01:46.130Z,13.06
2023-02-13T16:04:15.158Z,13.12
2023-02-13T16:06:44.500Z,13.02
2023-02-13T16:09:27.455Z,13.11
2023-02-13T16:12:19.701Z,12.75
2023-02-13T16:14:52.724Z,12.69
2023-02-13T16:17:37.510Z,12.81
2023-02-13T16:20:18.600Z,13.03
2023-02-13T16:22:53.939Z,12.79
2023-02-13T16:25:36.650Z,12.89
2023-02-13T16:28:24.946Z,12.96
2023-02-13T16:30:58.567Z,12.61
2023-02-13T16:33:30.800Z,12.63
2023-02-13T16:36:10.368Z,12.78
2023-02-13T16:38:44.493Z,12.73
2023-02-13T16:41:18.139Z,12.62
2023-02-13T16:43:56.386Z,12.59
2023-02-13T16:46:32.300Z,12.72
2023-02-13T16:49:06.732Z,12.80
2023-02-13T16:51:39.604Z,12.74
2023-02-13T16:54:15.618Z,12.48
2023-02-13T16:56:53.874Z,12.39
2023-02-13T16:59:21.172Z,12.51
2023-02-13T17:01:48.993Z,12.37
2023-02-13T17:04:24.834Z,12.38
2023-02-13T17:06:55.310Z,12.34
2023-02-13T17:09:23.166Z,12.21
2023-02-13T17:11:51.878Z,12.07
2023-02-13T17:14:20.541Z,12.09
2023-02-13T17:16:48.818Z,12.15
2023-02-13T17:19:16.373Z,12.13
2023-02-13T17:21:43.724Z,12.25
2023-02-13T17:24:17.543Z,12.14
2023-02-13T17:26:46.034Z,11.87
2023-02-13T17:29:13.394Z,12.01
2023-02-13T17:31:40.893Z,11.71
2023-02-13T17:34:11.375Z,11.80
2023-02-13T17:36:38.647Z,12.07
2023-02-13T17:39:05.982Z,11.94
2023-02-13T17:41:33.211Z,11.82
2023-02-13T17:44:00.437Z,11.64
2023-02-13T17:46:27.756Z,11.55
2023-02-13T17:48:55.178Z,11.65
2023-02-13T17:51:22.458Z,11.78
2023-02-13T17:53:50.325Z,11.94
2023-02-13T17:56:17.544Z,11.63
2023-02-13T17:58:44.892Z,11.73
2023-02-13T18:01:12.220Z,11.52
2023-02-13T18:03:40.421Z,11.53
2023-02-13T18:06:12.490Z,11.65
2023-02-13T18:08:39.861Z,11.55
2023-02-13T18:11:11.762Z,11.69
2023-02-13T18:13:43.929Z,11.64
2023-02-13T18:16:12.500Z,11.72
2023-02-13T18:18:39.911Z,11.82
2023-02-13T18:21:07.218Z,11.75
2023-02-13T18:23:34.579Z,11.37
2023-02-13T18:26:09.832Z,11.39
2023-02-13T18:28:38.017Z,11.21
2023-02-13T18:31:06.056Z,11.30
2023-02-13T18:33:33.374Z,11.54
2023-02-13T18:36:03.932Z,11.47
2023-02-13T18:38:31.291Z,11.50
2023-02-13T18:40:58.942Z,11.56
2023-02-13T18:43:27.495Z,11.45
2023-02-13T18:45:55.062Z,11.38
2023-02-13T18:48:23.274Z,11.47
2023-02-13T18:50:50.653Z,11.13
2023-02-13T18:53:21.215Z,11.25
2023-02-13T18:55:48.593Z,11.43
2023-02-13T18:58:15.839Z,11.64
2023-02-13T19:00:43.504Z,11.66
2023-02-13T19:03:13.386Z,11.50
2023-02-13T19:05:53.047Z,11.23
2023-02-13T19:08:20.817Z,11.55
2023-02-13T19:10:48.675Z,11.51
2023-02-13T19:13:16.468Z,11.54
2023-02-13T19:15:45.452Z,11.41
2023-02-13T19:18:14.800Z,11.38
2023-02-13T19:20:42.897Z,11.38
2023-02-13T19:23:10.217Z,11.47
2023-02-13T19:25:38.117Z,11.51
2023-02-13T19:28:05.638Z,11.59
2023-02-13T19:30:33.162Z,11.62
2023-02-13T19:33:00.557Z,11.51
2023-02-13T19:35:27.948Z,11.58
2023-02-13T19:37:55.246Z,11.46
2023-02-13T19:40:22.648Z,11.17
2023-02-13T19:42:49.944Z,11.23
2023-02-13T19:45:17.275Z,11.19
2023-02-13T19:47:45.511Z,11.04
2023-02-13T19:50:13.137Z,10.94
2023-02-13T19:52:40.528Z,10.77
2023-02-13T19:55:07.992Z,10.63
2023-02-13T19:57:35.711Z,10.68
2023-02-13T20:00:04.713Z,10.56
2023-02-13T20:02:39.173Z,10.63
2023-02-13T20:05:08.511Z,10.81
2023-02-13T20:07:35.936Z,10.74
2023-02-13T20:10:04.467Z,10.53
2023-02-13T20:12:34.514Z,10.38
2023-02-13T20:15:02.143Z,10.53
2023-02-13T20:17:29.754Z,10.48
2023-02-13T20:19:58.073Z,10.55
2023-02-13T20:22:25.460Z,10.29
2023-02-13T20:24:52.772Z,10.37
2023-02-13T20:27:20.269Z,10.30
2023-02-13T20:29:47.838Z,10.49
2023-02-13T20:32:16.466Z,10.44
2023-02-13T20:34:59.123Z,10.28
2023-02-13T20:37:35.390Z,10.34
2023-02-13T20:40:04.266Z,10.19
2023-02-13T20:42:34.575Z,10.13
2023-02-13T20:45:01.943Z,10.05
2023-02-13T20:47:29.402Z,9.96
2023-02-13T20:49:56.640Z,10.06
2023-02-13T20:52:24.078Z,9.97
2023-02-13T20:54:51.571Z,10.03
2023-02-13T20:57:19.241Z,10.01
2023-02-13T20:59:55.391Z,10.06
2023-02-13T21:02:22.837Z,9.93
2023-02-13T21:04:50.376Z,10.08
2023-02-13T21:07:17.751Z,10.08
2023-02-13T21:09:45.090Z,10.04
2023-02-13T21:12:12.427Z,9.66
2023-02-13T21:14:40.918Z,9.69
2023-02-13T21:17:09.722Z,9.65
2023-02-13T21:19:37.005Z,9.57
2023-02-13T21:22:13.404Z,9.37
2023-02-13T21:24:43.851Z,9.63
2023-02-13T21:27:11.600Z,9.52
2023-02-13T21:29:41.999Z,9.66
2023-02-13T21:32:10.364Z,9.74
2023-02-13T21:34:39.734Z,9.73
2023-02-13T21:37:10.071Z,9.67
2023-02-13T21:39:37.585Z,9.80
2023-02-13T21:42:05.197Z,9.71
2023-02-13T21:44:33.873Z,9.74
2023-02-13T21:47:06.790Z,9.73
2023-02-13T21:49:35.911Z,9.82
2023-02-13T21:52:03.601Z,9.85
2023-02-13T21:54:30.960Z,9.81
2023-02-13T21:56:58.280Z,9.74
2023-02-13T21:59:25.804Z,9.86
2023-02-13T22:01:54.630Z,9.79
2023-02-13T22:04:22.246Z,9.51
2023-02-13T22:06:51.394Z,9.42
2023-02-13T22:09:19.744Z,9.56
2023-02-13T22:11:47.547Z,9.46
2023-02-13T22:14:17.187Z,9.49
2023-02-13T22:16:46.010Z,9.48
2023-02-13T22:19:15.377Z,9.49
2023-02-13T22:21:43.038Z,9.31
2023-02-13T22:24:10.662Z,9.39
2023-02-13T22:26:39.901Z,9.21
2023-02-13T22:29:09.568Z,9.20
2023-02-13T22:31:37.576Z,9.23
2023-02-13T22:34:05.951Z,9.15
2023-02-13T22:36:35.178Z,9.22
2023-02-13T22:39:02.585Z,9.26
2023-02-13T22:41:30.126Z,9.42
2023-02-13T22:43:57.731Z,9.42
2023-02-13T22:46:27.279Z,9.35
2023-02-13T22:48:55.058Z,9.30
2023-02-13T22:51:25.560Z,9.22
2023-02-13T22:53:54.511Z,9.40
2023-02-13T22:56:22.859Z,9.36
2023-02-13T22:58:50.232Z,9.32
2023-02-13T23:01:19.465Z,9.32
2023-02-13T23:03:47.030Z,9.12
2023-02-13T23:06:15.078Z,9.03
2023-02-13T23:08:43.439Z,9.13
2023-02-13T23:11:33.987Z,9.19
2023-02-13T23:14:01.503Z,9.00
2023-02-13T23:16:49.307Z,9.12
2023-02-13T23:19:16.777Z,9.09
2023-02-13T23:21:44.075Z,8.96
2023-02-13T23:24:11.384Z,8.85
2023-02-13T23:26:38.756Z,8.93
2023-02-13T23:29:06.000Z,8.88
2023-02-13T23:31:33.331Z,8.99
2023-02-13T23:34:00.914Z,8.88
2023-02-13T23:36:28.669Z,8.94
2023-02-13T23:38:55.998Z,8.88
2023-02-13T23:41:23.306Z,8.63
2023-02-13T23:43:50.630Z,8.79
2023-02-13T23:46:18.079Z,8.72
2023-02-13T23:48:46.076Z,8.45
2023-02-13T23:51:13.478Z,8.54
2023-02-13T23:53:40.774Z,8.46
2023-02-13T23:56:08.082Z,8.62
2023-02-13T23:58:35.532Z,8.60
